Time;durP1;ratioP1;P1;durP2;ratioP2;P2;SDS_P1;SDS_P2;PMS_P1;PMS_P2;Temp;Humidity;BMP_temperature;BMP_pressure;BME280_temperature;BME280_humidity;BME280_pressure;Samples;Min_cycle;Max_cycle;Signal;HPM_P1;HPM_P2
2023/10/12 00:00:26;;;;;;;20.27;7.00;;;11.50;99.90;;;;;;4363347;28;657290;-67
2023/10/12 00:03:16;;;;;;;19.30;7.07;;;11.50;99.90;;;;;;4388408;28;656520;-67
2023/10/12 00:06:06;;;;;;;19.77;8.93;;;11.50;99.90;;;;;;4390142;28;656925;-67
2023/10/12 00:08:53;;;;;;;26.20;7.57;;;11.50;99.90;;;;;;4385213;28;656901;-67
2023/10/12 00:11:46;;;;;;;14.67;7.10;;;11.60;99.90;;;;;;4411216;28;656311;-67
2023/10/12 00:14:33;;;;;;;20.87;8.63;;;11.60;99.90;;;;;;4360853;28;657368;-67
2023/10/12 00:17:23;;;;;;;21.02;7.13;;;11.60;99.90;;;;;;4402820;28;657322;-67
2023/10/12 00:20:21;;;;;;;24.03;7.57;;;11.40;99.90;;;;;;4382285;28;657462;-67
2023/10/12 00:23:14;;;;;;;23.83;7.20;;;11.40;99.90;;;;;;4364954;28;657058;-67
2023/10/12 00:26:05;;;;;;;19.27;7.13;;;11.50;99.90;;;;;;4383770;28;656734;-67
2023/10/12 00:28:52;;;;;;;21.90;6.73;;;11.40;99.90;;;;;;4390249;28;657357;-67
2023/10/12 00:31:42;;;;;;;19.53;7.33;;;11.50;99.90;;;;;;4385914;28;657959;-67
2023/10/12 00:34:35;;;;;;;24.57;7.20;;;11.50;99.90;;;;;;4390996;28;657205;-67
2023/10/12 00:37:22;;;;;;;18.27;7.73;;;11.50;99.90;;;;;;4386464;28;657137;-67
2023/10/12 00:40:25;;;;;;;16.50;7.40;;;11.50;99.90;;;;;;4387839;28;657842;-68
2023/10/12 00:43:15;;;;;;;18.63;7.40;;;11.40;99.90;;;;;;4367808;28;656826;-68
2023/10/12 00:46:16;;;;;;;16.37;7.47;;;11.40;99.90;;;;;;4403850;28;656366;-67
2023/10/12 00:49:17;;;;;;;25.17;7.53;;;11.40;99.90;;;;;;4363035;28;658177;-67
2023/10/12 00:52:11;;;;;;;18.13;7.50;;;11.30;99.90;;;;;;4383602;28;656735;-69
2023/10/12 00:55:13;;;;;;;15.30;7.60;;;11.30;99.90;;;;;;4391908;28;656564;-67
2023/10/12 00:58:00;;;;;;;15.52;7.30;;;11.20;99.90;;;;;;4390218;28;656552;-67
2023/10/12 01:00:51;;;;;;;20.80;7.60;;;11.20;99.90;;;;;;4388282;28;656825;-67
2023/10/12 01:03:39;;;;;;;16.53;7.23;;;11.20;99.90;;;;;;4395721;28;656790;-68
2023/10/12 01:06:30;;;;;;;19.40;7.87;;;11.20;99.90;;;;;;4422503;28;657101;-67
2023/10/12 01:09:19;;;;;;;20.63;8.13;;;11.20;99.90;;;;;;4410247;28;657362;-68
2023/10/12 01:12:12;;;;;;;22.17;7.37;;;11.10;99.90;;;;;;4431404;28;656101;-68
2023/10/12 01:15:05;;;;;;;19.03;8.27;;;11.10;99.90;;;;;;4385635;28;657504;-68
2023/10/12 01:17:53;;;;;;;15.40;7.70;;;11.10;99.90;;;;;;4406417;28;656335;-68
2023/10/12 01:20:40;;;;;;;20.90;8.77;;;11.10;99.90;;;;;;4436706;28;658290;-68
2023/10/12 01:23:30;;;;;;;25.03;9.03;;;11.10;99.90;;;;;;4414270;28;657471;-68
2023/10/12 01:26:18;;;;;;;22.27;9.10;;;11.10;99.90;;;;;;4432199;28;657000;-68
2023/10/12 01:29:10;;;;;;;19.83;9.43;;;11.10;99.90;;;;;;4438489;28;656689;-68
2023/10/12 01:32:21;;;;;;;23.52;9.07;;;11.10;99.90;;;;;;4412817;28;656649;-68
2023/10/12 01:35:11;;;;;;;19.47;11.50;;;11.10;99.90;;;;;;4389978;28;656978;-69
2023/10/12 01:38:01;;;;;;;25.23;10.80;;;11.10;99.90;;;;;;4404463;28;657213;-68
2023/10/12 01:40:54;;;;;;;23.30;8.57;;;11.20;99.90;;;;;;4411843;28;657688;-69
2023/10/12 01:43:43;;;;;;;18.43;8.93;;;11.20;99.90;;;;;;4416948;28;656560;-69
2023/10/12 01:46:31;;;;;;;16.87;8.60;;;11.20;99.90;;;;;;4413520;28;658157;-69
2023/10/12 01:49:18;;;;;;;27.03;10.97;;;11.20;99.90;;;;;;4417172;28;656642;-69
2023/10/12 01:52:08;;;;;;;25.43;11.93;;;11.10;99.90;;;;;;4429455;28;658467;-70
2023/10/12 01:54:58;;;;;;;321.40;16.47;;;11.10;99.90;;;;;;4404538;28;658515;-68
2023/10/12 01:57:53;;;;;;;28.10;12.07;;;11.10;99.90;;;;;;4410195;28;659046;-69
2023/10/12 02:00:42;;;;;;;20.43;10.33;;;11.00;99.90;;;;;;4406609;28;657524;-68
2023/10/12 02:03:32;;;;;;;22.97;11.00;;;11.00;99.90;;;;;;4399918;28;658407;-68
2023/10/12 02:06:22;;;;;;;25.67;11.17;;;11.00;99.90;;;;;;4402389;28;658334;-68
2023/10/12 02:09:10;;;;;;;26.47;11.57;;;11.00;99.90;;;;;;4406292;28;658064;-68
2023/10/12 02:12:09;;;;;;;24.47;12.27;;;11.10;99.90;;;;;;4416042;28;657831;-68
2023/10/12 02:14:58;;;;;;;21.30;10.53;;;11.10;99.90;;;;;;4402004;28;657572;-68
2023/10/12 02:17:49;;;;;;;27.42;11.27;;;11.20;99.90;;;;;;4401250;28;662221;-68
2023/10/12 02:20:42;;;;;;;25.70;11.00;;;11.30;99.90;;;;;;4404124;28;657765;-68
2023/10/12 02:23:36;;;;;;;16.83;9.83;;;11.40;99.90;;;;;;4409614;28;657620;-69
2023/10/12 02:26:33;;;;;;;18.97;9.30;;;11.50;99.90;;;;;;4409221;28;656852;-68
2023/10/12 02:29:20;;;;;;;22.20;9.57;;;11.50;99.90;;;;;;4402120;28;656963;-68
2023/10/12 02:32:22;;;;;;;21.50;10.33;;;11.50;99.90;;;;;;4408788;28;657288;-69
2023/10/12 02:35:12;;;;;;;23.20;9.83;;;11.60;99.90;;;;;;4380220;28;658235;-69
2023/10/12 02:37:59;;;;;;;21.60;10.00;;;11.80;99.90;;;;;;4403750;28;657755;-69
2023/10/12 02:40:48;;;;;;;20.67;9.70;;;12.00;99.90;;;;;;4425861;28;659136;-69
2023/10/12 02:43:36;;;;;;;20.63;9.50;;;12.00;99.90;;;;;;4403416;28;658591;-69
2023/10/12 02:46:25;;;;;;;22.53;8.57;;;12.00;99.90;;;;;;4403626;28;657794;-69
2023/10/12 02:49:14;;;;;;;22.60;8.40;;;12.00;99.90;;;;;;4425717;28;658737;-69
2023/10/12 02:52:08;;;;;;;18.53;7.23;;;12.00;99.90;;;;;;4405294;28;658427;-69
2023/10/12 02:54:56;;;;;;;18.33;7.67;;;11.90;99.90;;;;;;4405800;28;659220;-69
2023/10/12 02:57:53;;;;;;;18.10;7.97;;;11.90;99.90;;;;;;4408082;28;657508;-69
2023/10/12 03:00:45;;;;;;;18.20;7.80;;;11.80;99.90;;;;;;4401074;28;658002;-69
2023/10/12 03:03:36;;;;;;;16.87;7.97;;;11.80;99.90;;;;;;4424046;28;658447;-69
2023/10/12 03:06:30;;;;;;;19.77;7.33;;;11.80;99.90;;;;;;4404518;28;657937;-69
2023/10/12 03:09:25;;;;;;;20.70;7.47;;;11.80;99.90;;;;;;4406916;28;661040;-69
2023/10/12 03:12:13;;;;;;;15.97;8.00;;;11.70;99.90;;;;;;4383846;28;657534;-69
2023/10/12 03:15:11;;;;;;;65.47;8.47;;;11.70;99.90;;;;;;4423652;28;659076;-69
2023/10/12 03:17:59;;;;;;;25.03;7.43;;;11.60;99.90;;;;;;4380867;28;658263;-69
2023/10/12 03:21:00;;;;;;;13.17;7.63;;;11.60;99.90;;;;;;4426238;28;657723;-69
2023/10/12 03:23:49;;;;;;;13.90;7.00;;;11.60;99.90;;;;;;4391703;28;658178;-69
2023/10/12 03:26:36;;;;;;;23.40;7.50;;;11.60;99.90;;;;;;4423980;28;657914;-69
2023/10/12 03:29:26;;;;;;;20.70;7.33;;;11.60;99.90;;;;;;4406519;28;657987;-69
2023/10/12 03:32:22;;;;;;;17.57;7.30;;;11.50;99.90;;;;;;4408381;28;657985;-69
2023/10/12 03:35:12;;;;;;;18.87;7.43;;;11.50;99.90;;;;;;4379422;28;657873;-69
2023/10/12 03:38:12;;;;;;;19.47;7.53;;;11.40;99.90;;;;;;4402709;28;658115;-69
2023/10/12 03:44:16;;;;;;;23.80;7.70;;;11.40;99.90;;;;;;4400304;28;657751;-69
2023/10/12 03:47:15;;;;;;;16.33;7.47;;;11.50;99.90;;;;;;4382291;28;658723;-69
2023/10/12 03:50:06;;;;;;;13.47;7.10;;;11.50;99.90;;;;;;4385503;28;657643;-69
2023/10/12 03:52:54;;;;;;;17.27;7.67;;;11.50;99.90;;;;;;4401844;28;658815;-69
2023/10/12 03:55:47;;;;;;;21.77;7.90;;;11.60;99.90;;;;;;4422126;28;657702;-70
2023/10/12 03:58:40;;;;;;;20.43;8.00;;;11.50;99.90;;;;;;4403951;28;657743;-69
2023/10/12 04:01:31;;;;;;;15.27;7.80;;;11.40;99.90;;;;;;4387863;28;658257;-69
2023/10/12 04:04:28;;;;;;;41.40;7.57;;;11.30;99.90;;;;;;4408689;28;657608;-69
2023/10/12 04:07:19;;;;;;;17.60;8.30;;;11.30;99.90;;;;;;4400855;28;657904;-69
2023/10/12 04:10:41;;;;;;;16.80;7.10;;;11.30;99.90;;;;;;4405235;28;658249;-69
2023/10/12 04:16:40;;;;;;;15.10;9.30;;;11.70;99.90;;;;;;4385685;28;657590;-70
2023/10/12 04:19:34;;;;;;;21.73;9.53;;;11.60;99.90;;;;;;4406524;28;658398;-69
2023/10/12 04:22:25;;;;;;;18.90;9.50;;;11.50;99.90;;;;;;4404713;28;657896;-69
2023/10/12 04:25:13;;;;;;;16.87;10.33;;;11.60;99.90;;;;;;4387202;28;657739;-70
2023/10/12 04:28:16;;;;;;;19.47;10.40;;;11.70;99.90;;;;;;4422585;28;659321;-70
2023/10/12 04:31:33;;;;;;;20.20;10.40;;;11.70;99.90;;;;;;4379056;28;659189;-70
2023/10/12 04:34:26;;;;;;;19.47;10.60;;;11.90;99.90;;;;;;4404983;28;659037;-70
2023/10/12 04:37:25;;;;;;;22.27;10.27;;;11.80;99.90;;;;;;4379531;28;659128;-70
2023/10/12 04:40:33;;;;;;;21.03;9.53;;;11.90;99.90;;;;;;4386287;28;660348;-70
2023/10/12 04:43:24;;;;;;;14.10;9.60;;;11.90;99.90;;;;;;4386511;28;658072;-70
2023/10/12 04:52:17;;;;;;;26.10;10.93;;;12.50;99.90;;;;;;4370318;28;659080;-70
2023/10/12 04:55:21;;;;;;;31.43;11.30;;;12.50;99.90;;;;;;4395381;28;660209;-70
2023/10/12 04:58:17;;;;;;;27.83;11.07;;;12.60;99.90;;;;;;4395060;28;658883;-70
2023/10/12 05:01:19;;;;;;;22.30;11.30;;;12.80;99.90;;;;;;4375508;28;658778;-70
2023/10/12 05:04:08;;;;;;;22.23;9.90;;;13.00;99.90;;;;;;4398983;28;658690;-70
2023/10/12 05:07:20;;;;;;;20.80;10.03;;;13.10;99.90;;;;;;4397531;28;657455;-70
2023/10/12 05:10:15;;;;;;;20.13;9.40;;;13.10;99.90;;;;;;4368942;28;659871;-70
2023/10/12 05:13:04;;;;;;;20.00;9.30;;;13.10;99.90;;;;;;4406153;28;658146;-69
2023/10/12 05:16:04;;;;;;;17.03;8.10;;;13.10;99.90;;;;;;4431544;28;657991;-69
2023/10/12 05:18:52;;;;;;;18.90;8.33;;;13.00;99.90;;;;;;4402020;28;658010;-70
2023/10/12 05:21:39;;;;;;;16.47;8.37;;;12.90;99.90;;;;;;4408928;28;658017;-69
2023/10/12 05:24:26;;;;;;;22.57;8.17;;;12.80;99.90;;;;;;4437372;28;657900;-70
2023/10/12 05:27:23;;;;;;;20.57;7.97;;;12.80;99.90;;;;;;4408357;28;658505;-70
2023/10/12 05:30:19;;;;;;;18.07;8.47;;;12.70;99.90;;;;;;4406447;28;658677;-70
2023/10/12 05:33:07;;;;;;;16.53;9.00;;;12.70;99.90;;;;;;4402088;28;657542;-70
2023/10/12 05:35:57;;;;;;;22.07;9.50;;;12.80;99.90;;;;;;4408473;28;658435;-70
2023/10/12 05:38:48;;;;;;;16.67;8.93;;;12.80;99.90;;;;;;4411553;28;657469;-70
2023/10/12 05:41:36;;;;;;;16.07;8.87;;;12.90;99.90;;;;;;4400490;28;657322;-70
2023/10/12 05:44:26;;;;;;;24.67;10.10;;;13.00;99.90;;;;;;4405896;28;657735;-70
2023/10/12 05:47:13;;;;;;;19.53;9.33;;;13.10;99.90;;;;;;4401400;28;659093;-70
2023/10/12 05:50:01;;;;;;;19.83;9.63;;;13.10;99.90;;;;;;4426681;28;659024;-70
2023/10/12 05:52:51;;;;;;;17.20;8.53;;;13.10;99.90;;;;;;4401879;28;657695;-70
2023/10/12 05:55:40;;;;;;;21.37;9.63;;;13.10;99.90;;;;;;4405062;28;658068;-70
2023/10/12 05:58:28;;;;;;;18.07;8.47;;;13.10;99.90;;;;;;4406802;28;658036;-70
2023/10/12 06:01:31;;;;;;;23.77;9.77;;;13.30;99.90;;;;;;4426455;28;659432;-70
2023/10/12 06:04:19;;;;;;;17.87;8.90;;;13.50;99.90;;;;;;4377865;28;657901;-70
2023/10/12 06:07:07;;;;;;;27.97;9.50;;;13.70;99.90;;;;;;4424825;28;658080;-70
2023/10/12 06:09:55;;;;;;;13.33;7.50;;;13.90;99.90;;;;;;4406663;28;658635;-70
2023/10/12 06:12:42;;;;;;;18.17;8.17;;;14.30;99.90;;;;;;4426149;28;658188;-69
2023/10/12 06:15:29;;;;;;;20.70;8.47;;;14.40;99.90;;;;;;4396768;28;658891;-70
2023/10/12 06:18:25;;;;;;;16.43;7.40;;;14.50;99.90;;;;;;4428766;28;657688;-70
2023/10/12 06:21:18;;;;;;;17.60;7.20;;;14.70;99.90;;;;;;4390717;28;657838;-69
2023/10/12 06:24:06;;;;;;;18.07;7.70;;;14.80;99.90;;;;;;4401982;28;658968;-69
2023/10/12 06:27:00;;;;;;;18.00;7.67;;;14.90;99.90;;;;;;4371629;28;658378;-70
2023/10/12 06:29:48;;;;;;;17.07;7.43;;;15.10;99.90;;;;;;4421921;28;657728;-71
2023/10/12 06:32:38;;;;;;;18.20;7.40;;;15.20;99.90;;;;;;4429956;28;658299;-71
2023/10/12 06:35:28;;;;;;;17.60;7.17;;;15.40;99.90;;;;;;4401738;28;657881;-71
2023/10/12 06:38:23;;;;;;;13.50;7.07;;;15.60;99.90;;;;;;4399265;28;658472;-71
2023/10/12 06:44:25;;;;;;;19.63;7.40;;;15.80;99.90;;;;;;4380021;28;657678;-70
2023/10/12 06:50:20;;;;;;;15.00;7.30;;;16.10;99.90;;;;;;4399537;28;658527;-70
2023/10/12 06:53:10;;;;;;;17.93;7.47;;;16.30;99.90;;;;;;4393750;28;658239;-70
2023/10/12 06:55:59;;;;;;;16.77;7.03;;;16.50;99.90;;;;;;4409872;28;657892;-70
2023/10/12 07:02:09;;;;;;;14.47;6.80;;;16.70;99.90;;;;;;4402646;28;658459;-69
2023/10/12 07:04:57;;;;;;;18.50;7.50;;;16.80;99.90;;;;;;4402117;28;657485;-69
2023/10/12 07:07:44;;;;;;;18.03;7.67;;;16.90;99.90;;;;;;4389632;28;657780;-69
2023/10/12 07:10:33;;;;;;;24.20;8.40;;;17.10;99.90;;;;;;4414492;28;658162;-69
2023/10/12 07:13:25;;;;;;;15.93;7.40;;;17.10;99.90;;;;;;4387254;28;658635;-68
2023/10/12 07:16:15;;;;;;;18.43;7.50;;;17.20;99.90;;;;;;4371456;28;657745;-68
2023/10/12 07:19:05;;;;;;;18.13;7.53;;;17.30;99.90;;;;;;4388249;28;658370;-67
2023/10/12 07:21:53;;;;;;;14.63;7.67;;;17.30;99.90;;;;;;4413455;28;657775;-66
2023/10/12 07:24:42;;;;;;;17.63;7.00;;;16.90;99.90;;;;;;4396391;28;658469;-67
2023/10/12 07:27:48;;;;;;;20.20;8.70;;;17.00;99.90;;;;;;4393289;28;659029;-67
2023/10/12 07:30:36;;;;;;;15.33;6.27;;;17.00;99.90;;;;;;4386796;28;657836;-66
2023/10/12 07:33:23;;;;;;;17.77;8.20;;;16.90;99.90;;;;;;4381268;28;661088;-67
2023/10/12 07:36:17;;;;;;;20.80;7.77;;;16.80;99.90;;;;;;4413332;28;658062;-68
2023/10/12 07:39:17;;;;;;;22.77;7.63;;;16.90;99.90;;;;;;4366175;28;660376;-67
2023/10/12 07:42:05;;;;;;;17.03;7.27;;;16.80;99.90;;;;;;4387410;28;657665;-67
2023/10/12 07:44:59;;;;;;;24.63;7.47;;;16.80;99.90;;;;;;4393529;28;657940;-67
2023/10/12 07:47:58;;;;;;;19.33;7.27;;;17.00;99.90;;;;;;4396730;28;657450;-67
2023/10/12 07:50:47;;;;;;;16.37;7.40;;;17.30;99.90;;;;;;4391779;28;657410;-66
2023/10/12 07:53:37;;;;;;;19.30;7.37;;;17.70;99.90;;;;;;4399914;28;658043;-67
2023/10/12 07:56:30;;;;;;;21.20;8.10;;;18.00;99.90;;;;;;4398159;28;657588;-66
2023/10/12 07:59:22;;;;;;;17.70;8.40;;;18.40;99.90;;;;;;4391388;28;658092;-67
2023/10/12 08:02:15;;;;;;;18.40;7.93;;;18.50;99.90;;;;;;4393912;28;658537;-66
2023/10/12 08:05:15;;;;;;;23.40;8.10;;;18.60;99.90;;;;;;4365045;28;659329;-67
2023/10/12 08:08:16;;;;;;;16.83;7.10;;;18.80;99.90;;;;;;4386390;28;657478;-67
2023/10/12 08:11:10;;;;;;;20.87;7.93;;;19.10;99.90;;;;;;4379666;28;658123;-67
2023/10/12 08:14:09;;;;;;;21.23;7.10;;;19.00;99.90;;;;;;4419703;28;657526;-67
2023/10/12 08:20:44;;;;;;;12.33;3.10;;;19.10;99.90;;;;;;4389285;28;657666;-66
2023/10/12 08:23:10;;;;;;;20.53;6.70;;;19.40;99.90;;;;;;4406396;28;658394;-66
2023/10/12 08:25:58;;;;;;;13.73;6.20;;;19.70;99.90;;;;;;4420649;28;658965;-66
2023/10/12 08:28:55;;;;;;;15.23;5.73;;;19.80;99.90;;;;;;4420981;28;658551;-67
2023/10/12 08:31:43;;;;;;;12.97;5.50;;;20.20;99.90;;;;;;4390460;28;658296;-66
2023/10/12 08:35:10;;;;;;;20.40;6.70;;;20.10;99.90;;;;;;4428417;28;658377;-67
2023/10/12 08:38:10;;;;;;;11.57;4.80;;;20.40;99.90;;;;;;4385855;28;658433;-66
2023/10/12 08:44:00;;;;;;;10.90;3.47;;;20.70;99.90;;;;;;4373050;28;658044;-67
2023/10/12 08:46:56;;;;;;;15.10;5.20;;;21.00;99.90;;;;;;4420156;28;657423;-67
2023/10/12 08:49:52;;;;;;;12.03;4.97;;;21.00;99.90;;;;;;4403034;28;658006;-66
2023/10/12 08:52:39;;;;;;;14.47;5.20;;;20.90;99.90;;;;;;4379287;28;657949;-66
2023/10/12 08:55:31;;;;;;;14.70;5.23;;;21.50;99.90;;;;;;4420283;28;658321;-66
2023/10/12 08:58:31;;;;;;;15.13;3.60;;;21.40;99.90;;;;;;4367286;28;658023;-66
2023/10/12 09:01:23;;;;;;;9.93;4.17;;;21.60;99.90;;;;;;4397674;28;658480;-66
2023/10/12 09:04:13;;;;;;;11.27;4.20;;;21.60;99.90;;;;;;4404109;28;657515;-66
2023/10/12 09:07:03;;;;;;;13.53;4.50;;;21.50;99.90;;;;;;4398288;28;658910;-66
2023/10/12 09:09:54;;;;;;;13.57;3.37;;;21.40;99.90;;;;;;4403764;28;658503;-66
2023/10/12 09:12:43;;;;;;;11.60;3.30;;;21.70;99.90;;;;;;4402650;28;657790;-66
2023/10/12 09:15:38;;;;;;;12.27;3.97;;;22.00;99.90;;;;;;4400750;28;659259;-66
2023/10/12 09:18:27;;;;;;;13.97;4.70;;;21.70;99.90;;;;;;4401220;28;657824;-66
2023/10/12 09:21:23;;;;;;;11.57;4.13;;;22.10;99.90;;;;;;4406650;28;658649;-66
2023/10/12 09:24:27;;;;;;;8.67;3.60;;;22.10;99.90;;;;;;4396214;28;657905;-66
2023/10/12 09:27:26;;;;;;;12.67;4.40;;;22.20;99.90;;;;;;4379038;28;657427;-66
2023/10/12 09:30:25;;;;;;;11.03;4.63;;;21.90;99.90;;;;;;4377528;28;659572;-66
2023/10/12 09:33:44;;;;;;;13.80;4.40;;;21.80;99.90;;;;;;4396195;28;658217;-66
2023/10/12 09:36:27;;;;;;;13.47;4.50;;;21.80;99.90;;;;;;4405511;28;657597;-66
2023/10/12 09:39:14;;;;;;;8.47;3.10;;;21.90;99.90;;;;;;4427290;28;657166;-67
2023/10/12 09:42:13;;;;;;;13.37;4.33;;;21.50;99.90;;;;;;4428955;28;656159;-65
2023/10/12 09:45:05;;;;;;;14.37;4.60;;;21.80;99.90;;;;;;4397213;28;657799;-65
2023/10/12 09:47:57;;;;;;;14.53;4.40;;;22.00;99.90;;;;;;4402752;28;657894;-66
2023/10/12 09:50:45;;;;;;;11.47;3.80;;;22.20;99.90;;;;;;4404549;28;657536;-65
2023/10/12 09:53:36;;;;;;;13.00;4.47;;;22.50;99.90;;;;;;4419286;28;658259;-66
2023/10/12 09:56:28;;;;;;;10.70;3.97;;;22.20;99.90;;;;;;4402141;28;658330;-65
2023/10/12 09:59:18;;;;;;;15.57;4.57;;;22.00;99.90;;;;;;4401887;28;658372;-65
2023/10/12 10:02:27;;;;;;;12.20;3.57;;;22.30;99.90;;;;;;4397929;28;658927;-66
2023/10/12 10:05:27;;;;;;;15.03;4.53;;;22.40;99.90;;;;;;4403259;28;657576;-66
2023/10/12 10:08:17;;;;;;;14.93;4.90;;;22.40;99.90;;;;;;4398598;28;657887;-66
2023/10/12 10:11:11;;;;;;;8.40;3.70;;;22.30;99.90;;;;;;4394853;28;658856;-65
2023/10/12 10:13:58;;;;;;;11.30;3.90;;;22.80;99.90;;;;;;4383435;28;658059;-65
2023/10/12 10:16:47;;;;;;;14.47;4.83;;;22.70;99.90;;;;;;4421066;28;658491;-65
2023/10/12 10:19:35;;;;;;;11.63;3.83;;;22.10;99.90;;;;;;4400261;28;658731;-65
2023/10/12 10:22:24;;;;;;;7.33;3.43;;;22.20;99.90;;;;;;4406920;28;657682;-65
2023/10/12 10:25:17;;;;;;;15.57;3.33;;;22.60;99.90;;;;;;4424906;28;656946;-65
2023/10/12 10:28:08;;;;;;;9.67;4.07;;;22.80;99.90;;;;;;4373153;28;657971;-65
2023/10/12 10:30:59;;;;;;;15.23;4.38;;;23.10;99.90;;;;;;4399763;28;656952;-65
2023/10/12 10:33:51;;;;;;;8.95;3.97;;;23.20;93.30;;;;;;4400336;28;657956;-65
2023/10/12 10:36:38;;;;;;;14.37;4.73;;;22.40;99.90;;;;;;4381109;28;657111;-65
2023/10/12 10:39:30;;;;;;;9.33;2.97;;;22.00;99.90;;;;;;4423073;28;659231;-64
2023/10/12 10:42:18;;;;;;;16.67;4.37;;;21.90;99.90;;;;;;4388533;28;656600;-65
2023/10/12 10:45:12;;;;;;;8.03;3.43;;;22.30;99.90;;;;;;4418224;28;660045;-65
2023/10/12 10:48:03;;;;;;;14.77;4.50;;;22.70;99.90;;;;;;4399938;28;656514;-64
2023/10/12 10:50:51;;;;;;;17.43;4.60;;;21.90;99.90;;;;;;4406468;28;657612;-66
2023/10/12 10:53:38;;;;;;;15.17;4.80;;;22.00;99.90;;;;;;4403818;28;657368;-65
2023/10/12 10:56:35;;;;;;;12.07;4.53;;;22.00;99.90;;;;;;4427104;28;658158;-64
2023/10/12 10:59:23;;;;;;;12.30;4.55;;;22.30;99.90;;;;;;4422853;28;658066;-65
2023/10/12 11:02:11;;;;;;;18.90;5.18;;;22.50;99.90;;;;;;4421677;28;658685;-65
2023/10/12 11:05:01;;;;;;;16.88;4.55;;;23.00;99.90;;;;;;4403341;28;657995;-64
2023/10/12 11:07:51;;;;;;;8.45;3.58;;;23.30;99.90;;;;;;4387701;28;657609;-64
2023/10/12 11:11:17;;;;;;;16.27;5.07;;;23.20;96.10;;;;;;4388910;28;656479;-64
2023/10/12 11:13:47;;;;;;;13.73;4.80;;;23.30;95.70;;;;;;4382861;28;657486;-64
2023/10/12 11:16:36;;;;;;;13.13;4.57;;;23.20;99.90;;;;;;4387521;28;658373;-64
2023/10/12 11:19:24;;;;;;;13.52;4.20;;;22.50;95.20;;;;;;4376608;28;658845;-64
2023/10/12 11:22:13;;;;;;;11.35;4.53;;;22.40;95.50;;;;;;4394622;28;657473;-65
2023/10/12 11:25:01;;;;;;;11.23;4.15;;;22.50;99.90;;;;;;4379913;28;659188;-64
2023/10/12 11:27:51;;;;;;;14.63;4.80;;;22.30;99.90;;;;;;4387584;28;657484;-64
2023/10/12 11:30:42;;;;;;;12.15;4.88;;;22.40;99.90;;;;;;4386493;28;658054;-65
2023/10/12 11:33:29;;;;;;;11.63;5.13;;;23.10;99.90;;;;;;4383951;28;658145;-64
2023/10/12 11:36:23;;;;;;;13.73;4.93;;;22.90;95.60;;;;;;4406049;28;658933;-65
2023/10/12 11:39:16;;;;;;;10.57;5.05;;;22.10;99.90;;;;;;4383190;28;660379;-64
2023/10/12 11:42:04;;;;;;;19.20;4.63;;;22.20;99.90;;;;;;4375158;28;657371;-64
2023/10/12 11:44:52;;;;;;;13.75;4.50;;;22.80;99.90;;;;;;4411145;28;659333;-64
2023/10/12 11:47:43;;;;;;;17.67;4.72;;;22.90;99.90;;;;;;4385613;28;657982;-65
2023/10/12 11:50:33;;;;;;;12.27;4.73;;;22.20;99.90;;;;;;4383022;28;658187;-65
2023/10/12 11:53:20;;;;;;;15.00;4.77;;;21.70;99.90;;;;;;4379502;28;658479;-64
2023/10/12 11:56:13;;;;;;;13.33;4.53;;;21.30;99.90;;;;;;4386761;28;658047;-65
2023/10/12 11:59:00;;;;;;;13.60;5.07;;;20.70;99.90;;;;;;4385036;28;658462;-65
2023/10/12 12:01:51;;;;;;;12.43;4.57;;;20.50;99.90;;;;;;4390355;28;657774;-65
2023/10/12 12:04:40;;;;;;;17.37;4.83;;;20.70;99.90;;;;;;4392155;28;658581;-64
2023/10/12 12:07:29;;;;;;;12.17;5.07;;;20.60;99.90;;;;;;4405802;28;657167;-65
2023/10/12 12:10:24;;;;;;;13.13;4.43;;;20.50;99.90;;;;;;4422051;28;657981;-64
2023/10/12 12:13:12;;;;;;;16.90;5.40;;;20.50;99.90;;;;;;4394779;28;658197;-64
2023/10/12 12:15:59;;;;;;;11.80;4.40;;;20.60;99.90;;;;;;4395866;28;658653;-65
2023/10/12 12:18:48;;;;;;;14.60;5.10;;;20.50;99.90;;;;;;4423857;28;657735;-64
2023/10/12 12:21:37;;;;;;;13.10;5.00;;;20.80;99.90;;;;;;4402867;28;658848;-65
2023/10/12 12:24:29;;;;;;;14.93;4.63;;;20.90;99.90;;;;;;4400530;28;658661;-65
2023/10/12 12:27:37;;;;;;;14.00;4.97;;;21.30;99.90;;;;;;4407679;28;658450;-65
2023/10/12 12:30:27;;;;;;;18.83;5.13;;;21.00;99.90;;;;;;4383562;28;658836;-64
2023/10/12 12:33:16;;;;;;;14.80;4.73;;;21.00;99.90;;;;;;4402158;28;659724;-65
2023/10/12 12:36:09;;;;;;;11.17;4.80;;;20.90;99.90;;;;;;4409839;28;658287;-65
2023/10/12 12:39:00;;;;;;;10.10;5.17;;;20.80;99.90;;;;;;4409589;28;657368;-65
2023/10/12 12:41:48;;;;;;;20.80;5.53;;;20.80;99.90;;;;;;4390816;28;657604;-65
2023/10/12 12:44:35;;;;;;;10.17;3.37;;;20.50;99.90;;;;;;4425736;28;658825;-65
2023/10/12 12:47:23;;;;;;;15.43;5.30;;;20.70;99.90;;;;;;4422119;28;657479;-65
2023/10/12 12:50:11;;;;;;;14.60;5.13;;;20.80;99.90;;;;;;4429112;28;657361;-65
2023/10/12 12:52:58;;;;;;;19.53;4.50;;;20.70;99.90;;;;;;4398515;28;657555;-65
2023/10/12 12:55:47;;;;;;;18.10;4.90;;;20.70;99.90;;;;;;4428479;28;658105;-65
2023/10/12 12:58:36;;;;;;;16.50;5.23;;;20.30;99.90;;;;;;4401543;28;659079;-65
2023/10/12 13:01:23;;;;;;;11.80;4.40;;;21.00;99.90;;;;;;4400171;28;657430;-65
2023/10/12 13:04:11;;;;;;;18.47;5.23;;;21.60;99.90;;;;;;4426517;28;658860;-65
2023/10/12 13:07:07;;;;;;;14.10;5.00;;;21.60;99.90;;;;;;4399562;28;657919;-65
2023/10/12 13:09:55;;;;;;;12.73;4.67;;;21.90;99.90;;;;;;4376525;28;657818;-65
2023/10/12 13:12:44;;;;;;;11.70;5.40;;;21.10;99.90;;;;;;4423941;28;657827;-65
2023/10/12 13:15:32;;;;;;;14.73;5.03;;;20.90;99.90;;;;;;4433543;28;658142;-65
2023/10/12 13:18:19;;;;;;;14.47;4.90;;;21.80;99.90;;;;;;4407489;28;658628;-65
2023/10/12 13:21:07;;;;;;;18.27;5.20;;;21.40;99.90;;;;;;4426775;28;657544;-64
2023/10/12 13:23:54;;;;;;;10.87;3.80;;;21.20;99.90;;;;;;4398770;28;658441;-64
2023/10/12 13:26:44;;;;;;;16.87;5.20;;;21.20;99.90;;;;;;4429691;28;656967;-64
2023/10/12 13:29:33;;;;;;;7.07;3.13;;;21.10;99.90;;;;;;4408355;28;657719;-64
2023/10/12 13:32:21;;;;;;;14.03;5.07;;;20.90;99.90;;;;;;4406987;28;657524;-64
2023/10/12 13:35:28;;;;;;;18.23;5.53;;;20.40;99.90;;;;;;4408597;28;657632;-65
2023/10/12 13:38:16;;;;;;;21.90;5.67;;;20.20;99.90;;;;;;4399016;28;657629;-64
2023/10/12 13:41:03;;;;;;;9.10;3.60;;;19.80;99.90;;;;;;4400823;28;657563;-65
2023/10/12 13:43:51;;;;;;;18.93;5.10;;;19.90;99.90;;;;;;4432328;28;657910;-64
2023/10/12 13:46:39;;;;;;;13.50;5.00;;;19.90;99.90;;;;;;4408362;28;657886;-64
2023/10/12 13:49:30;;;;;;;15.97;5.20;;;19.90;99.90;;;;;;4424738;28;658422;-65
2023/10/12 13:52:17;;;;;;;14.27;5.23;;;19.50;99.90;;;;;;4388458;28;657887;-65
2023/10/12 13:55:07;;;;;;;12.57;5.53;;;19.50;99.90;;;;;;4426377;28;658080;-65
2023/10/12 13:57:57;;;;;;;17.40;5.83;;;19.30;99.90;;;;;;4403898;28;658931;-64
2023/10/12 14:00:45;;;;;;;11.10;5.57;;;19.10;99.90;;;;;;4402101;28;658553;-64
2023/10/12 14:03:35;;;;;;;17.97;6.27;;;18.90;99.90;;;;;;4422204;28;657632;-65
2023/10/12 14:06:23;;;;;;;21.83;5.90;;;18.80;99.90;;;;;;4405104;28;657693;-65
2023/10/12 14:09:11;;;;;;;17.20;5.87;;;18.40;99.90;;;;;;4427370;28;657625;-65
2023/10/12 14:11:59;;;;;;;17.90;6.33;;;18.20;99.90;;;;;;4405960;28;657546;-65
2023/10/12 14:14:46;;;;;;;15.47;6.80;;;18.20;99.90;;;;;;4425116;28;658126;-65
2023/10/12 14:17:34;;;;;;;17.27;6.37;;;17.90;99.90;;;;;;4407480;28;658478;-65
2023/10/12 14:20:26;;;;;;;17.47;6.80;;;17.80;99.90;;;;;;4427633;28;657673;-65
2023/10/12 14:23:14;;;;;;;15.73;7.47;;;17.60;99.90;;;;;;4385496;28;659208;-65
2023/10/12 14:26:01;;;;;;;17.13;6.93;;;17.60;99.90;;;;;;4420244;28;657331;-65
2023/10/12 14:28:50;;;;;;;23.23;7.43;;;17.60;99.90;;;;;;4405332;28;657710;-66
2023/10/12 14:31:43;;;;;;;20.37;7.93;;;17.50;99.90;;;;;;4419449;28;657528;-66
2023/10/12 14:34:30;;;;;;;19.90;7.27;;;17.30;99.90;;;;;;4402980;28;659441;-66
2023/10/12 14:37:22;;;;;;;14.73;7.73;;;17.40;99.90;;;;;;4403525;28;657451;-66
2023/10/12 14:40:11;;;;;;;21.50;7.97;;;17.30;99.90;;;;;;4402211;28;658425;-65
2023/10/12 14:43:05;;;;;;;19.43;8.10;;;17.30;99.90;;;;;;4406008;28;657427;-65
2023/10/12 14:45:57;;;;;;;22.67;9.30;;;17.30;99.90;;;;;;4388546;28;658345;-65
2023/10/12 14:48:49;;;;;;;19.75;8.35;;;17.30;99.90;;;;;;4403735;28;657620;-65
2023/10/12 14:51:37;;;;;;;26.60;9.37;;;17.00;99.90;;;;;;4408489;28;658609;-65
2023/10/12 14:54:27;;;;;;;23.40;9.70;;;17.00;99.90;;;;;;4404988;28;659172;-65
2023/10/12 14:57:16;;;;;;;22.47;10.50;;;17.00;99.90;;;;;;4403736;28;657765;-66